< < Back
Terminal Aerodrome Forecast


Current Version              Previous Versions:   1  2  3  4  5  6  7  8  9  

Terminal Aerodrome Forecast

143
FTUS42 KTAE 221700
TAFDHN
TAF
KDHN 221722Z 2218/2318 09007KT 4SM -RA BR OVC004
     FM230300 14004KT 2SM -RA BR OVC002
     FM230900 16003KT 1/2SM -RA FG OVC001
     FM231500 16007KT 2SM -TSRA BR OVC003CB=



Latest METAR

982
SAUS70 KWBC 230100 RRR
MTRDHN
METAR KDHN 230053Z 09006KT 2 1/2SM BR OVC002 12/12 A2989 RMK AO2 SLP119
T01220122


USA.gov is the U.S. government's official web portal to all federal, state and local government web resources and services.